sensor_id;sensor_type;location;lat;lon;timestamp;pressure;altitude;pressure_sealevel;temperature;humidity
23733;BME280;12047;53.450;-2.286;2023-02-12T00:04:03;103453.25;;;15.87;100.00
23733;BME280;12047;53.450;-2.286;2023-02-12T00:09:04;103448.97;;;15.97;100.00
23733;BME280;12047;53.450;-2.286;2023-02-12T00:14:04;103453.81;;;16.05;100.00
23733;BME280;12047;53.450;-2.286;2023-02-12T00:19:05;103460.00;;;16.05;100.00
23733;BME280;12047;53.450;-2.286;2023-02-12T00:24:06;103454.31;;;16.22;100.00
23733;BME280;12047;53.450;-2.286;2023-02-12T00:29:07;103465.00;;;16.35;100.00
23733;BME280;12047;53.450;-2.286;2023-02-12T00:34:09;103455.72;;;15.90;100.00
23733;BME280;12047;53.450;-2.286;2023-02-12T00:39:10;103450.81;;;15.44;100.00
23733;BME280;12047;53.450;-2.286;2023-02-12T00:44:12;103452.41;;;16.24;100.00
23733;BME280;12047;53.450;-2.286;2023-02-12T00:49:12;103451.97;;;15.92;100.00
23733;BME280;12047;53.450;-2.286;2023-02-12T00:54:13;103436.59;;;15.83;100.00
23733;BME280;12047;53.450;-2.286;2023-02-12T00:59:14;103440.84;;;15.98;100.00
23733;BME280;12047;53.450;-2.286;2023-02-12T01:04:14;103418.16;;;15.91;100.00
23733;BME280;12047;53.450;-2.286;2023-02-12T01:09:15;103427.16;;;15.90;100.00
23733;BME280;12047;53.450;-2.286;2023-02-12T01:14:16;103423.06;;;16.23;100.00
23733;BME280;12047;53.450;-2.286;2023-02-12T01:19:17;103419.78;;;15.56;100.00
23733;BME280;12047;53.450;-2.286;2023-02-12T01:24:18;103429.72;;;15.00;100.00
23733;BME280;12047;53.450;-2.286;2023-02-12T01:29:18;103414.91;;;15.48;100.00
23733;BME280;12047;53.450;-2.286;2023-02-12T01:34:19;103416.59;;;15.10;100.00
23733;BME280;12047;53.450;-2.286;2023-02-12T01:39:19;103422.66;;;15.78;100.00
23733;BME280;12047;53.450;-2.286;2023-02-12T01:44:27;103420.19;;;16.13;100.00
23733;BME280;12047;53.450;-2.286;2023-02-12T01:49:35;103417.22;;;15.80;100.00
23733;BME280;12047;53.450;-2.286;2023-02-12T01:54:38;103421.91;;;15.89;100.00
23733;BME280;12047;53.450;-2.286;2023-02-12T01:59:44;103410.66;;;15.84;100.00
23733;BME280;12047;53.450;-2.286;2023-02-12T02:04:56;103419.06;;;15.00;100.00
23733;BME280;12047;53.450;-2.286;2023-02-12T02:09:59;103423.31;;;15.94;100.00
23733;BME280;12047;53.450;-2.286;2023-02-12T02:15:03;103422.59;;;15.13;100.00
23733;BME280;12047;53.450;-2.286;2023-02-12T02:35:54;103414.41;;;15.69;100.00
23733;BME280;12047;53.450;-2.286;2023-02-12T02:46:14;103415.25;;;15.17;100.00
23733;BME280;12047;53.450;-2.286;2023-02-12T02:51:28;103401.47;;;15.88;100.00
23733;BME280;12047;53.450;-2.286;2023-02-12T02:56:32;103424.75;;;14.81;100.00
23733;BME280;12047;53.450;-2.286;2023-02-12T03:01:45;103414.38;;;15.04;100.00
23733;BME280;12047;53.450;-2.286;2023-02-12T03:07:21;103430.22;;;15.19;100.00
23733;BME280;12047;53.450;-2.286;2023-02-12T03:13:01;103423.31;;;16.07;100.00
23733;BME280;12047;53.450;-2.286;2023-02-12T03:18:11;103413.91;;;16.02;100.00
23733;BME280;12047;53.450;-2.286;2023-02-12T03:23:21;103417.44;;;15.77;100.00
23733;BME280;12047;53.450;-2.286;2023-02-12T03:28:34;103428.56;;;14.77;100.00
23733;BME280;12047;53.450;-2.286;2023-02-12T03:33:48;103425.19;;;15.54;100.00
23733;BME280;12047;53.450;-2.286;2023-02-12T03:38:53;103429.97;;;15.10;100.00
23733;BME280;12047;53.450;-2.286;2023-02-12T03:44:06;103418.69;;;15.19;100.00
23733;BME280;12047;53.450;-2.286;2023-02-12T03:49:22;103419.53;;;15.84;100.00
23733;BME280;12047;53.450;-2.286;2023-02-12T03:54:24;103417.28;;;15.53;100.00
23733;BME280;12047;53.450;-2.286;2023-02-12T03:59:25;103408.13;;;15.82;100.00
23733;BME280;12047;53.450;-2.286;2023-02-12T04:04:27;103412.63;;;15.82;100.00
23733;BME280;12047;53.450;-2.286;2023-02-12T04:09:30;103410.69;;;15.71;100.00
23733;BME280;12047;53.450;-2.286;2023-02-12T04:14:48;103403.31;;;15.75;100.00
23733;BME280;12047;53.450;-2.286;2023-02-12T04:25:18;103421.47;;;14.49;100.00
23733;BME280;12047;53.450;-2.286;2023-02-12T04:30:27;103405.81;;;15.51;100.00
23733;BME280;12047;53.450;-2.286;2023-02-12T04:35:35;103410.50;;;14.54;100.00
23733;BME280;12047;53.450;-2.286;2023-02-12T04:40:40;103408.53;;;15.63;100.00
23733;BME280;12047;53.450;-2.286;2023-02-12T04:45:41;103408.97;;;15.57;100.00
23733;BME280;12047;53.450;-2.286;2023-02-12T04:50:42;103412.81;;;14.46;100.00
23733;BME280;12047;53.450;-2.286;2023-02-12T04:55:45;103418.19;;;14.73;100.00
23733;BME280;12047;53.450;-2.286;2023-02-12T05:00:47;103424.34;;;14.46;100.00
23733;BME280;12047;53.450;-2.286;2023-02-12T05:06:10;103424.75;;;14.67;100.00
23733;BME280;12047;53.450;-2.286;2023-02-12T05:11:30;103424.66;;;14.83;100.00
23733;BME280;12047;53.450;-2.286;2023-02-12T05:16:30;103426.88;;;14.19;100.00
23733;BME280;12047;53.450;-2.286;2023-02-12T05:21:34;103419.09;;;14.45;100.00
23733;BME280;12047;53.450;-2.286;2023-02-12T05:26:34;103421.81;;;14.98;100.00
23733;BME280;12047;53.450;-2.286;2023-02-12T05:31:35;103410.69;;;14.22;100.00
23733;BME280;12047;53.450;-2.286;2023-02-12T05:36:37;103415.69;;;14.84;100.00
23733;BME280;12047;53.450;-2.286;2023-02-12T05:41:38;103411.28;;;14.56;100.00
23733;BME280;12047;53.450;-2.286;2023-02-12T05:46:38;103406.56;;;15.53;100.00
23733;BME280;12047;53.450;-2.286;2023-02-12T05:51:39;103407.47;;;15.79;100.00
23733;BME280;12047;53.450;-2.286;2023-02-12T05:57:00;103406.31;;;15.83;100.00
23733;BME280;12047;53.450;-2.286;2023-02-12T06:07:36;103406.16;;;15.07;100.00
23733;BME280;12047;53.450;-2.286;2023-02-12T06:12:37;103418.19;;;14.73;100.00
23733;BME280;12047;53.450;-2.286;2023-02-12T06:17:40;103409.19;;;15.27;100.00
23733;BME280;12047;53.450;-2.286;2023-02-12T06:22:41;103402.44;;;15.61;100.00
23733;BME280;12047;53.450;-2.286;2023-02-12T06:27:45;103411.88;;;15.27;100.00
23733;BME280;12047;53.450;-2.286;2023-02-12T06:32:48;103408.13;;;15.82;100.00
23733;BME280;12047;53.450;-2.286;2023-02-12T06:37:52;103415.31;;;15.42;100.00
23733;BME280;12047;53.450;-2.286;2023-02-12T06:42:53;103402.25;;;15.77;100.00
23733;BME280;12047;53.450;-2.286;2023-02-12T06:47:54;103404.63;;;15.29;100.00
23733;BME280;12047;53.450;-2.286;2023-02-12T06:52:54;103408.38;;;15.52;100.00
23733;BME280;12047;53.450;-2.286;2023-02-12T06:57:58;103409.16;;;14.88;100.00
23733;BME280;12047;53.450;-2.286;2023-02-12T07:02:59;103414.44;;;15.29;100.00
23733;BME280;12047;53.450;-2.286;2023-02-12T07:08:18;103418.97;;;15.54;100.00
23733;BME280;12047;53.450;-2.286;2023-02-12T07:13:25;103418.28;;;15.38;100.00
23733;BME280;12047;53.450;-2.286;2023-02-12T07:18:35;103424.59;;;14.97;100.00
23733;BME280;12047;53.450;-2.286;2023-02-12T07:23:45;103431.84;;;15.35;100.00
23733;BME280;12047;53.450;-2.286;2023-02-12T07:28:47;103432.44;;;15.13;100.00
23733;BME280;12047;53.450;-2.286;2023-02-12T07:33:48;103432.31;;;15.02;100.00
23733;BME280;12047;53.450;-2.286;2023-02-12T07:38:49;103430.84;;;14.83;100.00
23733;BME280;12047;53.450;-2.286;2023-02-12T07:44:02;103435.91;;;15.27;100.00
23733;BME280;12047;53.450;-2.286;2023-02-12T07:49:07;103431.94;;;14.93;100.00
23733;BME280;12047;53.450;-2.286;2023-02-12T07:54:10;103426.34;;;15.11;100.00
23733;BME280;12047;53.450;-2.286;2023-02-12T07:59:16;103442.47;;;14.82;100.00
23733;BME280;12047;53.450;-2.286;2023-02-12T08:04:22;103436.13;;;14.97;100.00
23733;BME280;12047;53.450;-2.286;2023-02-12T08:09:25;103430.56;;;15.27;100.00
23733;BME280;12047;53.450;-2.286;2023-02-12T08:14:27;103449.81;;;14.79;100.00
23733;BME280;12047;53.450;-2.286;2023-02-12T08:19:28;103447.41;;;15.15;100.00
23733;BME280;12047;53.450;-2.286;2023-02-12T08:24:28;103435.06;;;15.27;100.00
23733;BME280;12047;53.450;-2.286;2023-02-12T08:29:30;103448.16;;;14.90;100.00
23733;BME280;12047;53.450;-2.286;2023-02-12T08:34:34;103451.19;;;14.98;100.00
23733;BME280;12047;53.450;-2.286;2023-02-12T08:39:34;103442.00;;;15.29;100.00
23733;BME280;12047;53.450;-2.286;2023-02-12T08:44:35;103446.50;;;15.29;100.00
23733;BME280;12047;53.450;-2.286;2023-02-12T08:49:36;103447.66;;;15.64;100.00
23733;BME280;12047;53.450;-2.286;2023-02-12T08:54:37;103451.50;;;15.60;100.00
23733;BME280;12047;53.450;-2.286;2023-02-12T08:59:37;103449.94;;;15.71;100.00
23733;BME280;12047;53.450;-2.286;2023-02-12T09:04:38;103457.19;;;15.29;100.00
23733;BME280;12047;53.450;-2.286;2023-02-12T09:09:40;103453.34;;;15.73;100.00
23733;BME280;12047;53.450;-2.286;2023-02-12T09:14:40;103452.50;;;15.32;100.00
23733;BME280;12047;53.450;-2.286;2023-02-12T09:19:42;103452.81;;;15.28;100.00
23733;BME280;12047;53.450;-2.286;2023-02-12T09:24:42;103448.59;;;16.52;100.00
23733;BME280;12047;53.450;-2.286;2023-02-12T09:29:43;103440.41;;;15.27;100.00
23733;BME280;12047;53.450;-2.286;2023-02-12T09:34:43;103441.69;;;15.86;100.00
23733;BME280;12047;53.450;-2.286;2023-02-12T09:39:44;103434.22;;;15.39;100.00
23733;BME280;12047;53.450;-2.286;2023-02-12T09:50:22;103444.00;;;15.53;100.00
23733;BME280;12047;53.450;-2.286;2023-02-12T09:55:31;103439.34;;;15.56;100.00
23733;BME280;12047;53.450;-2.286;2023-02-12T10:00:35;103435.84;;;15.42;100.00
23733;BME280;12047;53.450;-2.286;2023-02-12T10:05:47;103437.56;;;15.16;100.00
23733;BME280;12047;53.450;-2.286;2023-02-12T10:10:51;103426.06;;;15.68;100.00
23733;BME280;12047;53.450;-2.286;2023-02-12T10:21:54;103423.50;;;15.66;100.00
23733;BME280;12047;53.450;-2.286;2023-02-12T10:27:02;103420.09;;;15.24;100.00
23733;BME280;12047;53.450;-2.286;2023-02-12T10:32:20;103423.41;;;19.07;100.00
23733;BME280;12047;53.450;-2.286;2023-02-12T10:37:31;103434.63;;;16.23;100.00
23733;BME280;12047;53.450;-2.286;2023-02-12T10:42:43;103427.97;;;15.53;100.00
23733;BME280;12047;53.450;-2.286;2023-02-12T10:47:45;103428.41;;;15.59;100.00
23733;BME280;12047;53.450;-2.286;2023-02-12T10:52:55;103427.91;;;15.80;95.83
23733;BME280;12047;53.450;-2.286;2023-02-12T10:58:27;103420.31;;;15.99;95.92
23733;BME280;12047;53.450;-2.286;2023-02-12T11:03:32;103431.56;;;16.04;96.34
23733;BME280;12047;53.450;-2.286;2023-02-12T11:08:39;103422.88;;;15.75;94.90
23733;BME280;12047;53.450;-2.286;2023-02-12T11:13:52;103432.50;;;14.98;94.75
23733;BME280;12047;53.450;-2.286;2023-02-12T11:19:05;103428.72;;;15.15;93.78
23733;BME280;12047;53.450;-2.286;2023-02-12T11:24:31;103431.81;;;14.82;92.72
23733;BME280;12047;53.450;-2.286;2023-02-12T11:29:32;103430.22;;;15.19;92.09
23733;BME280;12047;53.450;-2.286;2023-02-12T11:34:34;103423.22;;;15.31;93.22
23733;BME280;12047;53.450;-2.286;2023-02-12T11:39:37;103424.94;;;15.05;94.67
23733;BME280;12047;53.450;-2.286;2023-02-12T11:44:40;103422.50;;;15.15;92.92
23733;BME280;12047;53.450;-2.286;2023-02-12T11:49:49;103422.88;;;15.75;92.51
23733;BME280;12047;53.450;-2.286;2023-02-12T11:54:55;103421.53;;;15.03;93.47
23733;BME280;12047;53.450;-2.286;2023-02-12T12:00:00;103415.66;;;15.50;92.43
23733;BME280;12047;53.450;-2.286;2023-02-12T12:05:13;103410.00;;;15.15;92.09
23733;BME280;12047;53.450;-2.286;2023-02-12T12:16:21;103393.03;;;16.07;92.71
23733;BME280;12047;53.450;-2.286;2023-02-12T12:21:44;103401.25;;;15.65;92.03
23733;BME280;12047;53.450;-2.286;2023-02-12T12:26:48;103398.06;;;15.98;91.64
23733;BME280;12047;53.450;-2.286;2023-02-12T12:32:00;103392.34;;;16.28;89.65
23733;BME280;12047;53.450;-2.286;2023-02-12T13:09:39;103345.63;;;15.32;89.29
23733;BME280;12047;53.450;-2.286;2023-02-12T13:15:02;103346.63;;;15.82;89.49
23733;BME280;12047;53.450;-2.286;2023-02-12T13:25:34;103346.91;;;15.27;89.77
23733;BME280;12047;53.450;-2.286;2023-02-12T13:36:59;103320.44;;;15.75;89.04
23733;BME280;12047;53.450;-2.286;2023-02-12T13:53:21;103300.44;;;15.29;89.34
23733;BME280;12047;53.450;-2.286;2023-02-12T14:03:30;103291.38;;;14.92;89.25
23733;BME280;12047;53.450;-2.286;2023-02-12T14:08:40;103288.66;;;15.19;90.40
23733;BME280;12047;53.450;-2.286;2023-02-12T14:13:56;103290.03;;;15.88;88.73
23733;BME280;12047;53.450;-2.286;2023-02-12T14:29:36;103279.56;;;15.22;91.30
23733;BME280;12047;53.450;-2.286;2023-02-12T14:34:38;103286.19;;;14.64;91.03
23733;BME280;12047;53.450;-2.286;2023-02-12T14:39:39;103281.72;;;15.29;89.01
23733;BME280;12047;53.450;-2.286;2023-02-12T14:44:57;103280.66;;;15.70;89.64
23733;BME280;12047;53.450;-2.286;2023-02-12T14:50:21;103283.19;;;15.21;90.04
23733;BME280;12047;53.450;-2.286;2023-02-12T14:55:29;103273.16;;;15.24;90.51
23733;BME280;12047;53.450;-2.286;2023-02-12T15:00:54;103268.66;;;14.60;92.84
23733;BME280;12047;53.450;-2.286;2023-02-12T15:06:15;103270.16;;;14.64;92.44
23733;BME280;12047;53.450;-2.286;2023-02-12T15:11:25;103265.38;;;15.34;91.29
23733;BME280;12047;53.450;-2.286;2023-02-12T15:21:46;103275.41;;;15.69;88.17
23733;BME280;12047;53.450;-2.286;2023-02-12T15:26:57;103281.06;;;15.77;88.30
23733;BME280;12047;53.450;-2.286;2023-02-12T15:32:03;103276.06;;;15.59;88.88
23733;BME280;12047;53.450;-2.286;2023-02-12T15:37:07;103274.88;;;15.38;88.85
23733;BME280;12047;53.450;-2.286;2023-02-12T15:47:26;103266.69;;;14.76;89.73
23733;BME280;12047;53.450;-2.286;2023-02-12T15:52:33;103278.38;;;14.34;91.39
23733;BME280;12047;53.450;-2.286;2023-02-12T15:57:38;103268.50;;;14.88;90.32
23733;BME280;12047;53.450;-2.286;2023-02-12T16:02:40;103271.31;;;15.12;89.14
23733;BME280;12047;53.450;-2.286;2023-02-12T16:07:41;103267.69;;;14.61;90.17
23733;BME280;12047;53.450;-2.286;2023-02-12T16:12:45;103271.22;;;15.01;89.46
23733;BME280;12047;53.450;-2.286;2023-02-12T16:17:56;103265.03;;;15.77;87.61
23733;BME280;12047;53.450;-2.286;2023-02-12T16:23:04;103271.25;;;15.64;87.55
23733;BME280;12047;53.450;-2.286;2023-02-12T16:28:14;103267.13;;;15.97;100.00
23733;BME280;12047;53.450;-2.286;2023-02-12T16:38:57;103250.97;;;14.59;92.18
23733;BME280;12047;53.450;-2.286;2023-02-12T17:01:03;103255.16;;;14.88;91.40
23733;BME280;12047;53.450;-2.286;2023-02-12T17:06:37;103250.16;;;14.84;90.24
23733;BME280;12047;53.450;-2.286;2023-02-12T17:18:09;103256.72;;;15.05;91.82
23733;BME280;12047;53.450;-2.286;2023-02-12T17:23:14;103251.34;;;14.92;91.84
23733;BME280;12047;53.450;-2.286;2023-02-12T17:28:15;103249.88;;;14.61;92.65
23733;BME280;12047;53.450;-2.286;2023-02-12T17:33:16;103256.78;;;14.24;94.77
23733;BME280;12047;53.450;-2.286;2023-02-12T17:38:36;103264.69;;;14.12;93.92
23733;BME280;12047;53.450;-2.286;2023-02-12T17:43:58;103258.56;;;13.97;95.31
23733;BME280;12047;53.450;-2.286;2023-02-12T18:00:25;103270.56;;;13.61;97.46
23733;BME280;12047;53.450;-2.286;2023-02-12T18:05:49;103268.69;;;13.35;98.97
23733;BME280;12047;53.450;-2.286;2023-02-12T18:10:50;103265.72;;;12.95;100.00
23733;BME280;12047;53.450;-2.286;2023-02-12T18:15:50;103259.75;;;13.36;100.00
23733;BME280;12047;53.450;-2.286;2023-02-12T18:20:51;103260.13;;;13.30;100.00
23733;BME280;12047;53.450;-2.286;2023-02-12T18:25:55;103257.47;;;13.30;100.00
23733;BME280;12047;53.450;-2.286;2023-02-12T18:30:58;103256.88;;;13.25;100.00
23733;BME280;12047;53.450;-2.286;2023-02-12T18:36:27;103260.38;;;13.11;100.00
23733;BME280;12047;53.450;-2.286;2023-02-12T18:41:35;103233.84;;;13.10;100.00
23733;BME280;12047;53.450;-2.286;2023-02-12T18:46:37;103235.50;;;12.97;100.00
23733;BME280;12047;53.450;-2.286;2023-02-12T18:51:38;103221.91;;;13.01;100.00
23733;BME280;12047;53.450;-2.286;2023-02-12T18:56:42;103228.19;;;12.86;100.00
23733;BME280;12047;53.450;-2.286;2023-02-12T19:01:49;103230.22;;;12.37;100.00
23733;BME280;12047;53.450;-2.286;2023-02-12T19:06:52;103238.09;;;13.12;100.00
23733;BME280;12047;53.450;-2.286;2023-02-12T19:11:55;103230.66;;;12.59;100.00
23733;BME280;12047;53.450;-2.286;2023-02-12T19:16:56;103237.50;;;12.33;100.00
23733;BME280;12047;53.450;-2.286;2023-02-12T19:21:59;103226.00;;;12.33;100.00
23733;BME280;12047;53.450;-2.286;2023-02-12T19:27:03;103225.47;;;12.72;100.00
23733;BME280;12047;53.450;-2.286;2023-02-12T19:32:04;103234.88;;;11.86;100.00
23733;BME280;12047;53.450;-2.286;2023-02-12T19:37:04;103245.81;;;11.80;100.00
23733;BME280;12047;53.450;-2.286;2023-02-12T19:42:07;103229.44;;;12.19;100.00
23733;BME280;12047;53.450;-2.286;2023-02-12T19:47:09;103224.81;;;12.22;100.00
23733;BME280;12047;53.450;-2.286;2023-02-12T19:52:10;103221.50;;;12.03;100.00
23733;BME280;12047;53.450;-2.286;2023-02-12T19:57:10;103222.31;;;12.35;100.00
23733;BME280;12047;53.450;-2.286;2023-02-12T20:02:11;103237.06;;;11.93;100.00
23733;BME280;12047;53.450;-2.286;2023-02-12T20:07:12;103225.34;;;11.82;100.00
23733;BME280;12047;53.450;-2.286;2023-02-12T20:12:13;103218.69;;;11.73;100.00
23733;BME280;12047;53.450;-2.286;2023-02-12T20:17:13;103225.19;;;11.68;100.00
23733;BME280;12047;53.450;-2.286;2023-02-12T20:22:14;103221.13;;;11.78;100.00
23733;BME280;12047;53.450;-2.286;2023-02-12T20:27:15;103220.50;;;11.73;100.00
23733;BME280;12047;53.450;-2.286;2023-02-12T20:32:15;103220.41;;;11.74;100.00
23733;BME280;12047;53.450;-2.286;2023-02-12T20:37:16;103224.03;;;12.20;100.00
23733;BME280;12047;53.450;-2.286;2023-02-12T20:42:18;103226.88;;;12.02;100.00
23733;BME280;12047;53.450;-2.286;2023-02-12T20:47:18;103230.31;;;12.04;100.00
23733;BME280;12047;53.450;-2.286;2023-02-12T20:52:21;103225.50;;;11.79;100.00
23733;BME280;12047;53.450;-2.286;2023-02-12T20:57:28;103214.56;;;11.68;100.00
23733;BME280;12047;53.450;-2.286;2023-02-12T21:02:58;103211.69;;;12.35;100.00
23733;BME280;12047;53.450;-2.286;2023-02-12T21:08:08;103207.38;;;11.38;100.00
23733;BME280;12047;53.450;-2.286;2023-02-12T21:13:18;103209.50;;;11.47;100.00
23733;BME280;12047;53.450;-2.286;2023-02-12T21:18:22;103210.28;;;11.65;100.00
23733;BME280;12047;53.450;-2.286;2023-02-12T21:23:25;103198.19;;;11.44;100.00
23733;BME280;12047;53.450;-2.286;2023-02-12T21:28:30;103202.13;;;11.04;100.00
23733;BME280;12047;53.450;-2.286;2023-02-12T21:33:34;103191.88;;;11.62;100.00
23733;BME280;12047;53.450;-2.286;2023-02-12T21:38:47;103202.72;;;11.42;100.00
23733;BME280;12047;53.450;-2.286;2023-02-12T21:43:50;103204.97;;;12.88;100.00
23733;BME280;12047;53.450;-2.286;2023-02-12T21:48:58;103207.47;;;11.52;100.00
23733;BME280;12047;53.450;-2.286;2023-02-12T21:54:03;103208.16;;;11.56;100.00
23733;BME280;12047;53.450;-2.286;2023-02-12T21:59:05;103190.81;;;11.00;100.00
23733;BME280;12047;53.450;-2.286;2023-02-12T22:04:08;103194.13;;;10.88;100.00
23733;BME280;12047;53.450;-2.286;2023-02-12T22:09:13;103213.19;;;11.45;100.00
23733;BME280;12047;53.450;-2.286;2023-02-12T22:14:16;103211.22;;;11.15;100.00
23733;BME280;12047;53.450;-2.286;2023-02-12T22:19:22;103205.72;;;11.03;100.00
23733;BME280;12047;53.450;-2.286;2023-02-12T22:24:22;103196.97;;;10.32;100.00
23733;BME280;12047;53.450;-2.286;2023-02-12T22:29:24;103199.31;;;11.07;100.00
23733;BME280;12047;53.450;-2.286;2023-02-12T22:34:30;103199.41;;;11.54;100.00
23733;BME280;12047;53.450;-2.286;2023-02-12T22:39:31;103201.66;;;10.44;100.00
23733;BME280;12047;53.450;-2.286;2023-02-12T22:50:10;103196.19;;;10.30;100.00
23733;BME280;12047;53.450;-2.286;2023-02-12T22:55:10;103207.38;;;10.71;100.00
23733;BME280;12047;53.450;-2.286;2023-02-12T23:00:12;103206.03;;;10.97;100.00
23733;BME280;12047;53.450;-2.286;2023-02-12T23:05:15;103207.44;;;11.85;100.00
23733;BME280;12047;53.450;-2.286;2023-02-12T23:10:19;103198.88;;;10.81;100.00
23733;BME280;12047;53.450;-2.286;2023-02-12T23:15:38;103192.44;;;10.15;100.00
23733;BME280;12047;53.450;-2.286;2023-02-12T23:20:39;103198.56;;;10.53;100.00
23733;BME280;12047;53.450;-2.286;2023-02-12T23:25:41;103201.13;;;10.37;100.00
23733;BME280;12047;53.450;-2.286;2023-02-12T23:30:42;103193.38;;;11.02;100.00
23733;BME280;12047;53.450;-2.286;2023-02-12T23:35:44;103199.63;;;10.66;100.00
23733;BME280;12047;53.450;-2.286;2023-02-12T23:40:46;103188.66;;;10.74;100.00
23733;BME280;12047;53.450;-2.286;2023-02-12T23:45:53;103180.59;;;11.25;100.00
23733;BME280;12047;53.450;-2.286;2023-02-12T23:50:53;103190.53;;;11.22;100.00
23733;BME280;12047;53.450;-2.286;2023-02-12T23:55:54;103191.84;;;11.79;100.00
